sensor_id;sensor_type;location;lat;lon;timestamp;temperature;humidity
14749;DHT22;7466;53.574;9.976;2023-04-24T00:00:12;12.20;99.90
14749;DHT22;7466;53.574;9.976;2023-04-24T00:02:40;12.20;99.90
14749;DHT22;7466;53.574;9.976;2023-04-24T00:05:12;12.20;99.90
14749;DHT22;7466;53.574;9.976;2023-04-24T00:07:39;12.20;99.90
14749;DHT22;7466;53.574;9.976;2023-04-24T00:10:07;12.20;99.90
14749;DHT22;7466;53.574;9.976;2023-04-24T00:12:34;12.10;99.90
14749;DHT22;7466;53.574;9.976;2023-04-24T00:15:03;12.10;99.90
14749;DHT22;7466;53.574;9.976;2023-04-24T00:17:31;12.10;99.90
14749;DHT22;7466;53.574;9.976;2023-04-24T00:20:02;12.10;99.90
14749;DHT22;7466;53.574;9.976;2023-04-24T00:22:36;12.10;99.90
14749;DHT22;7466;53.574;9.976;2023-04-24T00:25:03;12.10;99.90
14749;DHT22;7466;53.574;9.976;2023-04-24T00:27:30;12.10;99.90
14749;DHT22;7466;53.574;9.976;2023-04-24T00:29:57;12.00;99.90
14749;DHT22;7466;53.574;9.976;2023-04-24T00:32:26;12.00;99.90
14749;DHT22;7466;53.574;9.976;2023-04-24T00:34:52;12.00;99.90
14749;DHT22;7466;53.574;9.976;2023-04-24T00:37:19;12.00;99.90
14749;DHT22;7466;53.574;9.976;2023-04-24T00:39:46;12.00;99.90
14749;DHT22;7466;53.574;9.976;2023-04-24T00:42:13;12.00;99.90
14749;DHT22;7466;53.574;9.976;2023-04-24T00:44:41;11.90;99.90
14749;DHT22;7466;53.574;9.976;2023-04-24T00:47:08;11.90;99.90
14749;DHT22;7466;53.574;9.976;2023-04-24T00:49:36;11.90;99.90
14749;DHT22;7466;53.574;9.976;2023-04-24T00:52:24;11.90;99.90
14749;DHT22;7466;53.574;9.976;2023-04-24T00:54:50;11.90;99.90
14749;DHT22;7466;53.574;9.976;2023-04-24T00:57:21;11.80;99.90
14749;DHT22;7466;53.574;9.976;2023-04-24T00:59:49;11.80;99.90
14749;DHT22;7466;53.574;9.976;2023-04-24T01:02:16;11.80;99.90
14749;DHT22;7466;53.574;9.976;2023-04-24T01:04:44;11.80;99.90
14749;DHT22;7466;53.574;9.976;2023-04-24T01:07:11;11.80;99.90
14749;DHT22;7466;53.574;9.976;2023-04-24T01:09:40;11.80;99.90
14749;DHT22;7466;53.574;9.976;2023-04-24T01:12:20;11.80;99.90
14749;DHT22;7466;53.574;9.976;2023-04-24T01:14:54;11.80;99.90
14749;DHT22;7466;53.574;9.976;2023-04-24T01:17:22;11.70;99.90
14749;DHT22;7466;53.574;9.976;2023-04-24T01:19:50;11.70;99.90
14749;DHT22;7466;53.574;9.976;2023-04-24T01:22:20;11.70;99.90
14749;DHT22;7466;53.574;9.976;2023-04-24T01:24:47;11.70;99.90
14749;DHT22;7466;53.574;9.976;2023-04-24T01:27:17;11.60;99.90
14749;DHT22;7466;53.574;9.976;2023-04-24T01:29:44;11.60;99.90
14749;DHT22;7466;53.574;9.976;2023-04-24T01:32:11;11.60;99.90
14749;DHT22;7466;53.574;9.976;2023-04-24T01:34:38;11.60;99.90
14749;DHT22;7466;53.574;9.976;2023-04-24T01:37:06;11.60;99.90
14749;DHT22;7466;53.574;9.976;2023-04-24T01:39:35;11.70;99.90
14749;DHT22;7466;53.574;9.976;2023-04-24T01:42:03;11.70;99.90
14749;DHT22;7466;53.574;9.976;2023-04-24T01:44:33;11.70;99.90
14749;DHT22;7466;53.574;9.976;2023-04-24T01:47:01;11.70;99.90
14749;DHT22;7466;53.574;9.976;2023-04-24T01:49:40;11.80;99.90
14749;DHT22;7466;53.574;9.976;2023-04-24T01:52:07;11.80;99.90
14749;DHT22;7466;53.574;9.976;2023-04-24T01:54:36;11.80;99.90
14749;DHT22;7466;53.574;9.976;2023-04-24T01:57:03;11.70;99.90
14749;DHT22;7466;53.574;9.976;2023-04-24T01:59:31;11.80;99.90
14749;DHT22;7466;53.574;9.976;2023-04-24T02:01:59;11.80;99.90
14749;DHT22;7466;53.574;9.976;2023-04-24T02:04:26;11.80;99.90
14749;DHT22;7466;53.574;9.976;2023-04-24T02:06:53;11.80;99.90
14749;DHT22;7466;53.574;9.976;2023-04-24T02:09:21;11.80;99.90
14749;DHT22;7466;53.574;9.976;2023-04-24T02:11:49;11.80;99.90
14749;DHT22;7466;53.574;9.976;2023-04-24T02:14:16;11.80;99.90
14749;DHT22;7466;53.574;9.976;2023-04-24T02:16:43;11.80;99.90
14749;DHT22;7466;53.574;9.976;2023-04-24T02:19:10;11.80;99.90
14749;DHT22;7466;53.574;9.976;2023-04-24T02:21:37;11.80;99.90
14749;DHT22;7466;53.574;9.976;2023-04-24T02:24:07;11.70;99.90
14749;DHT22;7466;53.574;9.976;2023-04-24T02:26:34;11.80;99.90
14749;DHT22;7466;53.574;9.976;2023-04-24T02:29:03;11.70;99.90
14749;DHT22;7466;53.574;9.976;2023-04-24T02:31:30;11.80;99.90
14749;DHT22;7466;53.574;9.976;2023-04-24T02:33:57;11.70;99.90
14749;DHT22;7466;53.574;9.976;2023-04-24T02:36:24;11.70;99.90
14749;DHT22;7466;53.574;9.976;2023-04-24T02:38:51;11.70;99.90
14749;DHT22;7466;53.574;9.976;2023-04-24T02:41:20;11.60;99.90
14749;DHT22;7466;53.574;9.976;2023-04-24T02:43:54;11.60;99.90
14749;DHT22;7466;53.574;9.976;2023-04-24T02:46:27;11.50;99.90
14749;DHT22;7466;53.574;9.976;2023-04-24T02:48:53;11.50;99.90
14749;DHT22;7466;53.574;9.976;2023-04-24T02:51:20;11.50;99.90
14749;DHT22;7466;53.574;9.976;2023-04-24T02:53:47;11.40;99.90
14749;DHT22;7466;53.574;9.976;2023-04-24T02:56:18;11.40;99.90
14749;DHT22;7466;53.574;9.976;2023-04-24T02:58:45;11.40;99.90
14749;DHT22;7466;53.574;9.976;2023-04-24T03:01:12;11.40;99.90
14749;DHT22;7466;53.574;9.976;2023-04-24T03:03:42;11.30;99.90
14749;DHT22;7466;53.574;9.976;2023-04-24T03:06:09;11.30;99.90
14749;DHT22;7466;53.574;9.976;2023-04-24T03:08:36;11.30;99.90
14749;DHT22;7466;53.574;9.976;2023-04-24T03:11:03;11.20;99.90
14749;DHT22;7466;53.574;9.976;2023-04-24T03:13:31;11.20;99.90
14749;DHT22;7466;53.574;9.976;2023-04-24T03:15:58;11.20;99.90
14749;DHT22;7466;53.574;9.976;2023-04-24T03:18:25;11.20;99.90
14749;DHT22;7466;53.574;9.976;2023-04-24T03:20:53;11.20;99.90
14749;DHT22;7466;53.574;9.976;2023-04-24T03:23:21;11.10;99.90
14749;DHT22;7466;53.574;9.976;2023-04-24T03:25:47;11.10;99.90
14749;DHT22;7466;53.574;9.976;2023-04-24T03:28:14;11.10;99.90
14749;DHT22;7466;53.574;9.976;2023-04-24T03:30:41;11.00;99.90
14749;DHT22;7466;53.574;9.976;2023-04-24T03:33:20;11.00;99.90
14749;DHT22;7466;53.574;9.976;2023-04-24T03:35:47;11.10;99.90
14749;DHT22;7466;53.574;9.976;2023-04-24T03:38:15;11.00;99.90
14749;DHT22;7466;53.574;9.976;2023-04-24T03:40:51;11.00;99.90
14749;DHT22;7466;53.574;9.976;2023-04-24T03:43:18;10.90;99.90
14749;DHT22;7466;53.574;9.976;2023-04-24T03:45:48;10.90;99.90
14749;DHT22;7466;53.574;9.976;2023-04-24T03:48:15;10.80;99.90
14749;DHT22;7466;53.574;9.976;2023-04-24T03:50:42;10.80;99.90
14749;DHT22;7466;53.574;9.976;2023-04-24T03:53:09;10.70;99.90
14749;DHT22;7466;53.574;9.976;2023-04-24T03:55:37;10.80;99.90
14749;DHT22;7466;53.574;9.976;2023-04-24T03:58:04;10.80;99.90
14749;DHT22;7466;53.574;9.976;2023-04-24T04:00:33;10.80;99.90
14749;DHT22;7466;53.574;9.976;2023-04-24T04:03:00;10.70;99.90
14749;DHT22;7466;53.574;9.976;2023-04-24T04:05:27;10.70;99.90
14749;DHT22;7466;53.574;9.976;2023-04-24T04:07:54;10.70;99.90
14749;DHT22;7466;53.574;9.976;2023-04-24T04:10:21;10.70;99.90
14749;DHT22;7466;53.574;9.976;2023-04-24T04:12:51;10.70;99.90
14749;DHT22;7466;53.574;9.976;2023-04-24T04:15:18;10.70;99.90
14749;DHT22;7466;53.574;9.976;2023-04-24T04:17:45;10.70;99.90
14749;DHT22;7466;53.574;9.976;2023-04-24T04:20:12;10.70;99.90
14749;DHT22;7466;53.574;9.976;2023-04-24T04:22:39;10.80;99.90
14749;DHT22;7466;53.574;9.976;2023-04-24T04:25:09;10.80;99.90
14749;DHT22;7466;53.574;9.976;2023-04-24T04:27:37;10.80;99.90
14749;DHT22;7466;53.574;9.976;2023-04-24T04:30:07;10.80;99.90
14749;DHT22;7466;53.574;9.976;2023-04-24T04:32:35;10.90;99.90
14749;DHT22;7466;53.574;9.976;2023-04-24T04:35:03;10.80;99.90
14749;DHT22;7466;53.574;9.976;2023-04-24T04:37:33;10.80;99.90
14749;DHT22;7466;53.574;9.976;2023-04-24T04:40:00;10.80;99.90
14749;DHT22;7466;53.574;9.976;2023-04-24T04:42:32;10.80;99.90
14749;DHT22;7466;53.574;9.976;2023-04-24T04:44:59;10.80;99.90
14749;DHT22;7466;53.574;9.976;2023-04-24T04:47:35;10.80;99.90
14749;DHT22;7466;53.574;9.976;2023-04-24T04:50:02;10.90;99.90
14749;DHT22;7466;53.574;9.976;2023-04-24T04:52:31;10.90;99.90
14749;DHT22;7466;53.574;9.976;2023-04-24T04:54:58;11.00;99.90
14749;DHT22;7466;53.574;9.976;2023-04-24T04:57:25;11.00;99.90
14749;DHT22;7466;53.574;9.976;2023-04-24T04:59:52;11.10;99.90
14749;DHT22;7466;53.574;9.976;2023-04-24T05:02:19;11.10;99.90
14749;DHT22;7466;53.574;9.976;2023-04-24T05:04:47;11.10;99.90
14749;DHT22;7466;53.574;9.976;2023-04-24T05:07:14;11.00;99.90
14749;DHT22;7466;53.574;9.976;2023-04-24T05:09:41;11.00;99.90
14749;DHT22;7466;53.574;9.976;2023-04-24T05:12:08;11.00;99.90
14749;DHT22;7466;53.574;9.976;2023-04-24T05:14:34;11.00;99.90
14749;DHT22;7466;53.574;9.976;2023-04-24T05:17:01;11.00;99.90
14749;DHT22;7466;53.574;9.976;2023-04-24T05:19:28;11.10;99.90
14749;DHT22;7466;53.574;9.976;2023-04-24T05:21:57;11.10;99.90
14749;DHT22;7466;53.574;9.976;2023-04-24T05:24:24;11.20;99.90
14749;DHT22;7466;53.574;9.976;2023-04-24T05:26:51;11.20;99.90
14749;DHT22;7466;53.574;9.976;2023-04-24T05:29:18;11.30;99.90
14749;DHT22;7466;53.574;9.976;2023-04-24T05:31:45;11.30;99.90
14749;DHT22;7466;53.574;9.976;2023-04-24T05:34:12;11.40;99.90
14749;DHT22;7466;53.574;9.976;2023-04-24T05:36:39;11.40;99.90
14749;DHT22;7466;53.574;9.976;2023-04-24T05:39:08;11.40;99.90
14749;DHT22;7466;53.574;9.976;2023-04-24T05:41:35;11.40;99.90
14749;DHT22;7466;53.574;9.976;2023-04-24T05:44:02;11.50;99.90
14749;DHT22;7466;53.574;9.976;2023-04-24T05:46:29;11.40;99.90
14749;DHT22;7466;53.574;9.976;2023-04-24T05:48:55;11.50;99.90
14749;DHT22;7466;53.574;9.976;2023-04-24T05:51:23;11.60;99.90
14749;DHT22;7466;53.574;9.976;2023-04-24T05:53:49;11.60;99.90
14749;DHT22;7466;53.574;9.976;2023-04-24T05:56:18;11.60;99.90
14749;DHT22;7466;53.574;9.976;2023-04-24T05:58:46;11.70;99.90
14749;DHT22;7466;53.574;9.976;2023-04-24T06:01:13;11.70;99.90
14749;DHT22;7466;53.574;9.976;2023-04-24T06:03:41;11.70;99.90
14749;DHT22;7466;53.574;9.976;2023-04-24T06:06:11;11.80;99.90
14749;DHT22;7466;53.574;9.976;2023-04-24T06:08:38;11.90;99.90
14749;DHT22;7466;53.574;9.976;2023-04-24T06:11:05;11.90;99.90
14749;DHT22;7466;53.574;9.976;2023-04-24T06:13:33;12.00;99.90
14749;DHT22;7466;53.574;9.976;2023-04-24T06:16:00;11.90;99.90
14749;DHT22;7466;53.574;9.976;2023-04-24T06:18:27;11.90;99.90
14749;DHT22;7466;53.574;9.976;2023-04-24T06:20:57;12.10;99.90
14749;DHT22;7466;53.574;9.976;2023-04-24T06:23:24;12.10;99.90
14749;DHT22;7466;53.574;9.976;2023-04-24T06:25:51;12.20;99.90
14749;DHT22;7466;53.574;9.976;2023-04-24T06:28:18;12.30;99.90
14749;DHT22;7466;53.574;9.976;2023-04-24T06:30:46;12.30;99.90
14749;DHT22;7466;53.574;9.976;2023-04-24T06:33:13;12.50;99.90
14749;DHT22;7466;53.574;9.976;2023-04-24T06:35:44;12.50;99.90
14749;DHT22;7466;53.574;9.976;2023-04-24T06:38:13;12.50;99.90
14749;DHT22;7466;53.574;9.976;2023-04-24T06:40:41;12.50;99.90
14749;DHT22;7466;53.574;9.976;2023-04-24T06:43:08;12.60;99.90
14749;DHT22;7466;53.574;9.976;2023-04-24T06:45:35;12.60;99.90
14749;DHT22;7466;53.574;9.976;2023-04-24T06:48:06;12.50;99.90
14749;DHT22;7466;53.574;9.976;2023-04-24T06:50:33;12.70;99.90
14749;DHT22;7466;53.574;9.976;2023-04-24T06:53:01;12.90;99.90
14749;DHT22;7466;53.574;9.976;2023-04-24T06:55:28;12.90;99.90
14749;DHT22;7466;53.574;9.976;2023-04-24T06:57:55;12.90;99.90
14749;DHT22;7466;53.574;9.976;2023-04-24T07:00:25;13.00;99.90
14749;DHT22;7466;53.574;9.976;2023-04-24T07:03:02;13.10;99.90
14749;DHT22;7466;53.574;9.976;2023-04-24T07:05:32;13.30;99.90
14749;DHT22;7466;53.574;9.976;2023-04-24T07:08:03;13.30;99.90
14749;DHT22;7466;53.574;9.976;2023-04-24T07:10:32;13.20;99.90
14749;DHT22;7466;53.574;9.976;2023-04-24T07:13:01;13.00;99.90
14749;DHT22;7466;53.574;9.976;2023-04-24T07:15:27;12.90;99.90
14749;DHT22;7466;53.574;9.976;2023-04-24T07:17:54;13.00;99.90
14749;DHT22;7466;53.574;9.976;2023-04-24T07:20:22;13.20;99.90
14749;DHT22;7466;53.574;9.976;2023-04-24T07:22:50;13.20;99.90
14749;DHT22;7466;53.574;9.976;2023-04-24T07:25:19;13.20;99.90
14749;DHT22;7466;53.574;9.976;2023-04-24T07:27:46;13.40;99.90
14749;DHT22;7466;53.574;9.976;2023-04-24T07:30:14;13.70;99.90
14749;DHT22;7466;53.574;9.976;2023-04-24T07:32:41;13.80;99.90
14749;DHT22;7466;53.574;9.976;2023-04-24T07:35:09;13.60;99.90
14749;DHT22;7466;53.574;9.976;2023-04-24T07:37:36;13.40;99.90
14749;DHT22;7466;53.574;9.976;2023-04-24T07:40:05;13.20;99.90
14749;DHT22;7466;53.574;9.976;2023-04-24T07:42:49;13.30;99.90
14749;DHT22;7466;53.574;9.976;2023-04-24T07:45:17;13.20;99.90
14749;DHT22;7466;53.574;9.976;2023-04-24T07:47:44;13.10;99.90
14749;DHT22;7466;53.574;9.976;2023-04-24T07:50:11;13.00;99.90
14749;DHT22;7466;53.574;9.976;2023-04-24T07:52:39;13.30;99.90
14749;DHT22;7466;53.574;9.976;2023-04-24T07:55:08;13.40;99.90
14749;DHT22;7466;53.574;9.976;2023-04-24T07:57:35;13.20;99.90
14749;DHT22;7466;53.574;9.976;2023-04-24T08:00:03;13.10;99.90
14749;DHT22;7466;53.574;9.976;2023-04-24T08:02:31;13.00;99.90
14749;DHT22;7466;53.574;9.976;2023-04-24T08:04:58;13.00;99.90
14749;DHT22;7466;53.574;9.976;2023-04-24T08:07:25;13.20;99.90
14749;DHT22;7466;53.574;9.976;2023-04-24T08:09:52;13.20;99.90
14749;DHT22;7466;53.574;9.976;2023-04-24T08:12:20;13.10;99.90
14749;DHT22;7466;53.574;9.976;2023-04-24T08:14:47;13.20;99.90
14749;DHT22;7466;53.574;9.976;2023-04-24T08:17:14;13.10;99.90
14749;DHT22;7466;53.574;9.976;2023-04-24T08:19:42;13.20;99.90
14749;DHT22;7466;53.574;9.976;2023-04-24T08:22:13;13.00;99.90
14749;DHT22;7466;53.574;9.976;2023-04-24T08:24:46;13.00;99.90
14749;DHT22;7466;53.574;9.976;2023-04-24T08:27:13;13.10;99.90
14749;DHT22;7466;53.574;9.976;2023-04-24T08:29:41;13.10;99.90
14749;DHT22;7466;53.574;9.976;2023-04-24T08:32:08;13.10;99.90
14749;DHT22;7466;53.574;9.976;2023-04-24T08:34:35;13.10;99.90
14749;DHT22;7466;53.574;9.976;2023-04-24T08:37:03;13.10;99.90
14749;DHT22;7466;53.574;9.976;2023-04-24T08:39:30;13.10;99.90
14749;DHT22;7466;53.574;9.976;2023-04-24T08:41:57;13.10;99.90
14749;DHT22;7466;53.574;9.976;2023-04-24T08:44:31;13.20;99.90
14749;DHT22;7466;53.574;9.976;2023-04-24T08:47:00;12.90;99.90
14749;DHT22;7466;53.574;9.976;2023-04-24T08:49:28;13.00;99.90
14749;DHT22;7466;53.574;9.976;2023-04-24T08:51:56;13.10;99.90
14749;DHT22;7466;53.574;9.976;2023-04-24T08:54:23;13.00;99.90
14749;DHT22;7466;53.574;9.976;2023-04-24T08:56:55;13.20;99.90
14749;DHT22;7466;53.574;9.976;2023-04-24T08:59:27;13.20;99.90
14749;DHT22;7466;53.574;9.976;2023-04-24T09:01:55;13.00;99.90
14749;DHT22;7466;53.574;9.976;2023-04-24T09:04:24;13.30;99.90
14749;DHT22;7466;53.574;9.976;2023-04-24T09:06:51;13.40;99.90
14749;DHT22;7466;53.574;9.976;2023-04-24T09:09:18;13.60;99.90
14749;DHT22;7466;53.574;9.976;2023-04-24T09:11:46;13.80;99.90
14749;DHT22;7466;53.574;9.976;2023-04-24T09:14:15;13.90;99.90
14749;DHT22;7466;53.574;9.976;2023-04-24T09:16:43;13.80;99.90
14749;DHT22;7466;53.574;9.976;2023-04-24T09:19:10;13.90;99.90
14749;DHT22;7466;53.574;9.976;2023-04-24T09:21:38;14.00;99.90
14749;DHT22;7466;53.574;9.976;2023-04-24T09:24:14;14.00;99.90
14749;DHT22;7466;53.574;9.976;2023-04-24T09:26:43;13.70;99.90
14749;DHT22;7466;53.574;9.976;2023-04-24T09:29:14;13.60;99.90
14749;DHT22;7466;53.574;9.976;2023-04-24T09:31:47;13.50;99.90
14749;DHT22;7466;53.574;9.976;2023-04-24T09:34:22;13.30;99.90
14749;DHT22;7466;53.574;9.976;2023-04-24T09:36:51;13.30;99.90
14749;DHT22;7466;53.574;9.976;2023-04-24T09:39:18;13.40;99.90
14749;DHT22;7466;53.574;9.976;2023-04-24T09:41:48;13.60;99.90
14749;DHT22;7466;53.574;9.976;2023-04-24T09:44:16;13.50;99.90
14749;DHT22;7466;53.574;9.976;2023-04-24T09:46:54;13.60;99.90
14749;DHT22;7466;53.574;9.976;2023-04-24T09:49:23;13.30;99.90
14749;DHT22;7466;53.574;9.976;2023-04-24T09:51:52;13.30;99.90
14749;DHT22;7466;53.574;9.976;2023-04-24T09:54:28;13.10;99.90
14749;DHT22;7466;53.574;9.976;2023-04-24T09:56:55;13.00;99.90
14749;DHT22;7466;53.574;9.976;2023-04-24T09:59:23;12.90;99.90
14749;DHT22;7466;53.574;9.976;2023-04-24T10:01:50;12.60;99.90
14749;DHT22;7466;53.574;9.976;2023-04-24T10:04:19;12.50;99.90
14749;DHT22;7466;53.574;9.976;2023-04-24T10:06:47;12.70;99.90
14749;DHT22;7466;53.574;9.976;2023-04-24T10:09:17;12.70;99.90
14749;DHT22;7466;53.574;9.976;2023-04-24T10:11:47;12.70;99.90
14749;DHT22;7466;53.574;9.976;2023-04-24T10:14:15;12.60;99.90
14749;DHT22;7466;53.574;9.976;2023-04-24T10:16:43;12.50;99.90
14749;DHT22;7466;53.574;9.976;2023-04-24T10:19:12;12.50;99.90
14749;DHT22;7466;53.574;9.976;2023-04-24T10:21:40;12.60;99.90
14749;DHT22;7466;53.574;9.976;2023-04-24T10:24:12;12.70;99.90
14749;DHT22;7466;53.574;9.976;2023-04-24T10:26:45;12.70;99.90
14749;DHT22;7466;53.574;9.976;2023-04-24T10:29:14;12.70;99.90
14749;DHT22;7466;53.574;9.976;2023-04-24T10:31:41;12.70;99.90
14749;DHT22;7466;53.574;9.976;2023-04-24T10:34:11;12.80;99.90
14749;DHT22;7466;53.574;9.976;2023-04-24T10:36:41;12.80;99.90
14749;DHT22;7466;53.574;9.976;2023-04-24T10:39:13;12.90;99.90
14749;DHT22;7466;53.574;9.976;2023-04-24T10:41:42;12.90;99.90
14749;DHT22;7466;53.574;9.976;2023-04-24T10:44:16;12.90;99.90
14749;DHT22;7466;53.574;9.976;2023-04-24T10:46:44;12.90;99.90
14749;DHT22;7466;53.574;9.976;2023-04-24T10:49:11;12.90;99.90
14749;DHT22;7466;53.574;9.976;2023-04-24T10:51:46;12.90;99.90
14749;DHT22;7466;53.574;9.976;2023-04-24T10:54:24;12.90;99.90
14749;DHT22;7466;53.574;9.976;2023-04-24T10:56:53;13.10;99.90
14749;DHT22;7466;53.574;9.976;2023-04-24T10:59:40;13.20;99.90
14749;DHT22;7466;53.574;9.976;2023-04-24T11:02:09;13.20;99.90
14749;DHT22;7466;53.574;9.976;2023-04-24T11:04:37;13.20;99.90
14749;DHT22;7466;53.574;9.976;2023-04-24T11:07:04;13.50;99.90
14749;DHT22;7466;53.574;9.976;2023-04-24T11:09:32;13.70;99.90
14749;DHT22;7466;53.574;9.976;2023-04-24T11:12:06;13.70;99.90
14749;DHT22;7466;53.574;9.976;2023-04-24T11:15:02;13.50;99.90
14749;DHT22;7466;53.574;9.976;2023-04-24T11:17:31;13.50;99.90
14749;DHT22;7466;53.574;9.976;2023-04-24T11:20:03;13.50;99.90
14749;DHT22;7466;53.574;9.976;2023-04-24T11:22:33;13.50;99.90
14749;DHT22;7466;53.574;9.976;2023-04-24T11:25:01;13.50;99.90
14749;DHT22;7466;53.574;9.976;2023-04-24T11:27:32;13.40;99.90
14749;DHT22;7466;53.574;9.976;2023-04-24T11:30:06;13.40;99.90
14749;DHT22;7466;53.574;9.976;2023-04-24T11:32:36;13.60;99.90
14749;DHT22;7466;53.574;9.976;2023-04-24T11:35:10;13.70;99.90
14749;DHT22;7466;53.574;9.976;2023-04-24T11:37:40;13.80;99.90
14749;DHT22;7466;53.574;9.976;2023-04-24T11:40:09;13.80;99.90
14749;DHT22;7466;53.574;9.976;2023-04-24T11:42:39;13.80;99.90
14749;DHT22;7466;53.574;9.976;2023-04-24T11:45:11;13.90;99.90
14749;DHT22;7466;53.574;9.976;2023-04-24T11:47:38;13.60;99.90
14749;DHT22;7466;53.574;9.976;2023-04-24T11:50:07;13.30;99.90
14749;DHT22;7466;53.574;9.976;2023-04-24T11:52:37;13.50;99.90
14749;DHT22;7466;53.574;9.976;2023-04-24T11:55:07;13.70;99.90
14749;DHT22;7466;53.574;9.976;2023-04-24T11:57:34;13.60;99.90
14749;DHT22;7466;53.574;9.976;2023-04-24T12:00:05;13.70;99.90
14749;DHT22;7466;53.574;9.976;2023-04-24T12:02:32;13.80;99.90
14749;DHT22;7466;53.574;9.976;2023-04-24T12:04:59;13.70;99.90
14749;DHT22;7466;53.574;9.976;2023-04-24T12:07:25;13.80;99.90
14749;DHT22;7466;53.574;9.976;2023-04-24T12:09:57;13.60;99.90
14749;DHT22;7466;53.574;9.976;2023-04-24T12:12:26;13.80;99.90
14749;DHT22;7466;53.574;9.976;2023-04-24T12:14:54;13.90;99.90
14749;DHT22;7466;53.574;9.976;2023-04-24T12:17:27;13.90;99.90
14749;DHT22;7466;53.574;9.976;2023-04-24T12:19:57;13.70;99.90
14749;DHT22;7466;53.574;9.976;2023-04-24T12:22:24;13.60;99.90
14749;DHT22;7466;53.574;9.976;2023-04-24T12:24:58;13.40;99.90
14749;DHT22;7466;53.574;9.976;2023-04-24T12:27:26;13.50;99.90
14749;DHT22;7466;53.574;9.976;2023-04-24T12:29:55;13.50;99.90
14749;DHT22;7466;53.574;9.976;2023-04-24T12:32:22;13.50;99.90
14749;DHT22;7466;53.574;9.976;2023-04-24T12:34:52;13.40;99.90
14749;DHT22;7466;53.574;9.976;2023-04-24T12:37:19;13.30;99.90
14749;DHT22;7466;53.574;9.976;2023-04-24T12:40:03;13.20;99.90
14749;DHT22;7466;53.574;9.976;2023-04-24T12:42:32;13.40;99.90
14749;DHT22;7466;53.574;9.976;2023-04-24T12:45:00;13.40;99.90
14749;DHT22;7466;53.574;9.976;2023-04-24T12:47:29;13.30;99.90
14749;DHT22;7466;53.574;9.976;2023-04-24T12:49:57;13.30;99.90
14749;DHT22;7466;53.574;9.976;2023-04-24T12:52:25;13.10;99.90
14749;DHT22;7466;53.574;9.976;2023-04-24T12:54:53;13.00;99.90
14749;DHT22;7466;53.574;9.976;2023-04-24T12:57:21;13.00;99.90
14749;DHT22;7466;53.574;9.976;2023-04-24T12:59:49;12.90;99.90
14749;DHT22;7466;53.574;9.976;2023-04-24T13:02:17;12.90;99.90
14749;DHT22;7466;53.574;9.976;2023-04-24T13:04:44;12.90;99.90
14749;DHT22;7466;53.574;9.976;2023-04-24T13:07:14;12.80;99.90
14749;DHT22;7466;53.574;9.976;2023-04-24T13:09:41;12.60;99.90
14749;DHT22;7466;53.574;9.976;2023-04-24T13:12:09;12.50;99.90
14749;DHT22;7466;53.574;9.976;2023-04-24T13:14:36;12.50;99.90
14749;DHT22;7466;53.574;9.976;2023-04-24T13:17:03;12.50;99.90
14749;DHT22;7466;53.574;9.976;2023-04-24T13:19:37;12.50;99.90
14749;DHT22;7466;53.574;9.976;2023-04-24T13:22:05;12.50;99.90
14749;DHT22;7466;53.574;9.976;2023-04-24T13:24:36;12.40;99.90
14749;DHT22;7466;53.574;9.976;2023-04-24T13:27:05;12.40;99.90
14749;DHT22;7466;53.574;9.976;2023-04-24T13:29:32;12.40;99.90
14749;DHT22;7466;53.574;9.976;2023-04-24T13:32:01;12.50;99.90
14749;DHT22;7466;53.574;9.976;2023-04-24T13:34:30;12.40;99.90
14749;DHT22;7466;53.574;9.976;2023-04-24T13:36:58;12.20;99.90
14749;DHT22;7466;53.574;9.976;2023-04-24T13:39:25;12.20;99.90
14749;DHT22;7466;53.574;9.976;2023-04-24T13:41:54;12.20;99.90
14749;DHT22;7466;53.574;9.976;2023-04-24T13:44:22;12.20;99.90
14749;DHT22;7466;53.574;9.976;2023-04-24T13:46:51;12.20;99.90
14749;DHT22;7466;53.574;9.976;2023-04-24T13:49:20;12.20;99.90
14749;DHT22;7466;53.574;9.976;2023-04-24T13:51:47;12.30;99.90
14749;DHT22;7466;53.574;9.976;2023-04-24T13:54:14;12.30;99.90
14749;DHT22;7466;53.574;9.976;2023-04-24T13:56:42;12.30;99.90
14749;DHT22;7466;53.574;9.976;2023-04-24T13:59:11;12.30;99.90
14749;DHT22;7466;53.574;9.976;2023-04-24T14:01:39;12.40;99.90
14749;DHT22;7466;53.574;9.976;2023-04-24T14:04:05;12.20;99.90
14749;DHT22;7466;53.574;9.976;2023-04-24T14:06:34;12.20;99.90
14749;DHT22;7466;53.574;9.976;2023-04-24T14:09:05;12.20;99.90
14749;DHT22;7466;53.574;9.976;2023-04-24T14:11:33;12.30;99.90
14749;DHT22;7466;53.574;9.976;2023-04-24T14:14:01;12.30;99.90
14749;DHT22;7466;53.574;9.976;2023-04-24T14:16:30;12.30;99.90
14749;DHT22;7466;53.574;9.976;2023-04-24T14:18:57;12.30;99.90
14749;DHT22;7466;53.574;9.976;2023-04-24T14:21:24;12.30;99.90
14749;DHT22;7466;53.574;9.976;2023-04-24T14:23:51;12.30;99.90
14749;DHT22;7466;53.574;9.976;2023-04-24T14:26:18;12.30;99.90
14749;DHT22;7466;53.574;9.976;2023-04-24T14:28:45;12.30;99.90
14749;DHT22;7466;53.574;9.976;2023-04-24T14:31:13;12.30;99.90
14749;DHT22;7466;53.574;9.976;2023-04-24T14:33:41;12.30;99.90
14749;DHT22;7466;53.574;9.976;2023-04-24T14:36:09;12.10;99.90
14749;DHT22;7466;53.574;9.976;2023-04-24T14:38:35;11.90;99.90
14749;DHT22;7466;53.574;9.976;2023-04-24T14:41:04;11.80;99.90
14749;DHT22;7466;53.574;9.976;2023-04-24T14:43:34;11.60;99.90
14749;DHT22;7466;53.574;9.976;2023-04-24T14:46:01;11.20;99.90
14749;DHT22;7466;53.574;9.976;2023-04-24T14:48:29;10.80;99.90
14749;DHT22;7466;53.574;9.976;2023-04-24T14:50:57;10.50;99.90
14749;DHT22;7466;53.574;9.976;2023-04-24T14:53:24;10.50;99.90
14749;DHT22;7466;53.574;9.976;2023-04-24T14:55:51;10.60;99.90
14749;DHT22;7466;53.574;9.976;2023-04-24T14:58:18;10.60;99.90
14749;DHT22;7466;53.574;9.976;2023-04-24T15:00:48;10.60;99.90
14749;DHT22;7466;53.574;9.976;2023-04-24T15:03:20;10.40;99.90
14749;DHT22;7466;53.574;9.976;2023-04-24T15:05:47;10.40;99.90
14749;DHT22;7466;53.574;9.976;2023-04-24T15:08:15;10.30;99.90
14749;DHT22;7466;53.574;9.976;2023-04-24T15:10:42;10.30;99.90
14749;DHT22;7466;53.574;9.976;2023-04-24T15:13:09;10.30;99.90
14749;DHT22;7466;53.574;9.976;2023-04-24T15:15:37;10.20;99.90
14749;DHT22;7466;53.574;9.976;2023-04-24T15:18:04;10.20;99.90
14749;DHT22;7466;53.574;9.976;2023-04-24T15:20:33;10.10;99.90
14749;DHT22;7466;53.574;9.976;2023-04-24T15:23:00;10.00;99.90
14749;DHT22;7466;53.574;9.976;2023-04-24T15:25:29;9.90;99.90
14749;DHT22;7466;53.574;9.976;2023-04-24T15:27:58;9.80;99.90
14749;DHT22;7466;53.574;9.976;2023-04-24T15:30:25;9.80;99.90
14749;DHT22;7466;53.574;9.976;2023-04-24T15:32:52;9.80;99.90
14749;DHT22;7466;53.574;9.976;2023-04-24T15:35:19;9.70;99.90
14749;DHT22;7466;53.574;9.976;2023-04-24T15:37:46;9.70;99.90
14749;DHT22;7466;53.574;9.976;2023-04-24T15:40:13;9.70;99.90
14749;DHT22;7466;53.574;9.976;2023-04-24T15:42:43;9.60;99.90
14749;DHT22;7466;53.574;9.976;2023-04-24T15:45:10;9.60;99.90
14749;DHT22;7466;53.574;9.976;2023-04-24T15:47:37;9.40;99.90
14749;DHT22;7466;53.574;9.976;2023-04-24T15:50:05;9.40;99.90
14749;DHT22;7466;53.574;9.976;2023-04-24T15:52:33;9.50;99.90
14749;DHT22;7466;53.574;9.976;2023-04-24T15:55:02;9.40;99.90